Time;durP1;ratioP1;P1;durP2;ratioP2;P2;SDS_P1;SDS_P2;PMS_P1;PMS_P2;Temp;Humidity;BMP_temperature;BMP_pressure;BME280_temperature;BME280_humidity;BME280_pressure;Samples;Min_cycle;Max_cycle;Signal;HPM_P1;HPM_P2
2023/05/25 00:00:08;;;;;;;18.47;11.67;;;;;;;-141.97;82.58;47611.34;4959849;28;20218;-86
2023/05/25 00:02:34;;;;;;;19.93;11.83;;;;;;;-141.97;82.83;47634.41;4977837;28;20164;-85
2023/05/25 00:05:01;;;;;;;15.83;11.53;;;;;;;-141.97;83.20;47615.19;4977008;28;20211;-84
2023/05/25 00:07:26;;;;;;;18.27;12.07;;;;;;;-141.97;83.65;47615.19;4976052;28;20183;-86
2023/05/25 00:09:52;;;;;;;17.87;12.60;;;;;;;-141.97;84.38;47605.56;4977265;28;20172;-85
2023/05/25 00:12:17;;;;;;;17.17;11.80;;;;;;;-141.97;84.91;47634.41;4977128;28;20172;-85
2023/05/25 00:14:43;;;;;;;20.57;12.50;;;;;;;-141.97;85.24;47680.53;4977673;28;20176;-85
2023/05/25 00:17:08;;;;;;;17.97;11.73;;;;;;;-141.97;86.35;47595.97;4998626;28;20164;-85
2023/05/25 00:19:34;;;;;;;17.57;11.93;;;;;;;-141.97;86.54;47772.78;4988330;28;20295;-85
2023/05/25 00:22:01;;;;;;;15.83;12.23;;;;;;;-141.97;86.51;47555.59;4960223;28;20230;-85
2023/05/25 00:24:28;;;;;;;21.80;13.20;;;;;;;-141.97;86.99;47605.56;4977487;28;20251;-85
2023/05/25 00:26:54;;;;;;;21.63;13.93;;;;;;;-141.97;87.19;47630.56;4977181;28;20222;-86
2023/05/25 00:29:19;;;;;;;21.50;14.13;;;;;;;-141.97;87.53;47642.09;4977542;28;20246;-85
2023/05/25 00:31:45;;;;;;;22.80;13.93;;;;;;;-141.97;88.17;47767.03;4975723;28;20287;-84
2023/05/25 00:34:10;;;;;;;19.60;13.47;;;;;;;-141.97;87.62;47640.16;4977777;28;20254;-84
2023/05/25 00:36:35;;;;;;;20.50;13.97;;;;;;;-141.97;86.88;47611.34;4977181;28;20169;-85
2023/05/25 00:39:01;;;;;;;22.23;14.30;;;;;;;-141.97;87.28;47576.75;4976925;28;20172;-85
2023/05/25 00:41:27;;;;;;;21.47;14.53;;;;;;;-141.97;87.59;47488.31;4976964;28;20172;-85
2023/05/25 00:43:52;;;;;;;21.67;14.03;;;;;;;-141.97;87.51;47563.28;4982009;28;20220;-84
2023/05/25 00:46:18;;;;;;;21.83;14.23;;;;;;;-141.97;87.24;47638.25;4975082;28;20710;-86
2023/05/25 00:48:44;;;;;;;24.07;15.13;;;;;;;-141.97;87.28;47747.81;4976155;28;20179;-85
2023/05/25 00:51:12;;;;;;;22.47;14.47;;;;;;;-141.97;87.56;47588.28;4976870;28;20165;-86
2023/05/25 00:53:38;;;;;;;20.83;14.47;;;;;;;-141.97;87.25;47620.94;4976580;28;20192;-86
2023/05/25 00:56:16;;;;;;;21.17;13.27;;;;;;;-141.97;87.43;47761.25;4975992;28;20613;-86
2023/05/25 00:58:45;;;;;;;23.57;14.77;;;;;;;-141.97;87.31;47645.94;4977603;28;20222;-86
2023/05/25 01:01:14;;;;;;;21.77;14.30;;;;;;;-141.97;87.53;47647.84;4959147;28;20176;-84
2023/05/25 01:03:41;;;;;;;24.73;14.43;;;;;;;-141.97;87.98;47649.78;4975697;28;20556;-85
2023/05/25 01:06:13;;;;;;;20.37;14.03;;;;;;;-141.97;87.76;47676.69;4976235;28;20278;-85
2023/05/25 01:08:43;;;;;;;24.57;13.93;;;;;;;-141.97;87.79;47538.28;4975874;28;20175;-84
2023/05/25 01:11:11;;;;;;;24.33;14.20;;;;;;;-141.97;88.37;47672.84;4976510;28;20172;-85
2023/05/25 01:13:37;;;;;;;22.20;14.13;;;;;;;-141.97;88.84;47630.56;4976471;28;20172;-85
2023/05/25 01:16:05;;;;;;;20.90;14.13;;;;;;;-141.97;89.17;47797.78;4976173;28;20159;-85
2023/05/25 01:18:32;;;;;;;23.83;14.53;;;;;;;-141.97;89.17;47651.69;4976509;28;20175;-85
2023/05/25 01:21:11;;;;;;;21.97;13.97;;;;;;;-141.97;89.67;47638.25;4976081;28;20160;-85
2023/05/25 01:24:01;;;;;;;22.97;14.13;;;;;;;-141.97;90.39;47574.81;4975755;28;20266;-85
2023/05/25 01:26:31;;;;;;;20.73;13.87;;;;;;;-141.97;91.46;47663.22;4878942;29;20649;-85
2023/05/25 01:28:58;;;;;;;20.90;14.27;;;;;;;-141.97;91.82;47572.91;4879547;29;20191;-85
2023/05/25 01:31:23;;;;;;;21.93;14.13;;;;;;;-141.97;91.83;47615.19;4879351;29;20199;-85
2023/05/25 01:33:50;;;;;;;25.03;15.50;;;;;;;-141.97;92.01;47657.47;4863282;29;20191;-85
2023/05/25 01:36:17;;;;;;;21.27;14.27;;;;;;;-141.97;92.04;47661.31;4878819;29;20630;-85
2023/05/25 01:38:42;;;;;;;22.03;14.77;;;;;;;-141.97;91.81;47667.06;4878670;29;20195;-85
2023/05/25 01:41:08;;;;;;;21.80;14.47;;;;;;;-141.97;91.78;47672.84;4877655;29;20607;-85
2023/05/25 01:43:33;;;;;;;22.93;14.73;;;;;;;-141.97;91.26;47661.31;4871098;29;20219;-86
2023/05/25 01:46:15;;;;;;;22.67;14.90;;;;;;;-141.97;91.36;47676.69;4897267;29;20266;-85
2023/05/25 01:48:46;;;;;;;22.83;14.83;;;;;;;-141.97;90.67;47736.28;4897154;29;20214;-84
2023/05/25 01:51:23;;;;;;;21.53;14.57;;;;;;;-141.97;90.62;47659.38;4896908;29;20187;-85
2023/05/25 01:53:56;;;;;;;23.70;14.83;;;;;;;-141.97;90.63;47572.91;4896547;29;20189;-84
2023/05/25 01:56:26;;;;;;;22.30;14.40;;;;;;;-141.97;91.22;47638.25;4896947;29;20220;-85
2023/05/25 01:58:53;;;;;;;20.23;13.47;;;;;;;-141.97;92.25;47676.69;4896122;29;20219;-83
2023/05/25 02:01:19;;;;;;;21.90;14.80;;;;;;;-141.97;93.15;47795.88;4896451;29;20181;-85
2023/05/25 02:03:47;;;;;;;23.90;15.67;;;;;;;-141.97;93.43;47688.22;4946950;28;20648;-84
2023/05/25 02:06:14;;;;;;;22.37;15.00;;;;;;;-141.97;94.07;47695.91;4974646;28;20192;-85
2023/05/25 02:08:40;;;;;;;24.83;16.10;;;;;;;-141.97;94.58;47718.97;4957842;28;20555;-85
2023/05/25 02:11:06;;;;;;;25.20;15.20;;;;;;;-141.97;95.13;47672.84;4975506;28;20169;-86
2023/05/25 02:13:31;;;;;;;24.37;14.93;;;;;;;-141.97;96.06;47649.78;4974206;28;20176;-86
2023/05/25 02:15:56;;;;;;;24.57;15.77;;;;;;;-141.97;96.58;47692.06;4988760;28;20190;-85
2023/05/25 02:18:22;;;;;;;24.10;15.63;;;;;;;-141.97;97.24;47615.19;4989192;28;20220;-85
2023/05/25 02:20:48;;;;;;;26.03;15.77;;;;;;;-141.97;97.50;47586.34;4994798;28;20183;-86
2023/05/25 02:23:13;;;;;;;23.57;15.90;;;;;;;-141.97;98.05;47657.47;4977614;28;20171;-86
2023/05/25 02:25:41;;;;;;;23.53;15.50;;;;;;;-141.97;98.88;47638.25;4974542;28;20651;-86
2023/05/25 02:28:06;;;;;;;25.77;15.47;;;;;;;-141.97;99.76;47786.25;4976154;28;20163;-87
2023/05/25 02:30:32;;;;;;;22.97;14.73;;;;;;;-141.97;100.00;47603.66;4975505;28;20172;-84
2023/05/25 02:32:57;;;;;;;23.27;14.70;;;;;;;-141.97;100.00;47807.41;4975050;28;20247;-85
2023/05/25 02:35:22;;;;;;;25.57;15.50;;;;;;;-141.97;100.00;47661.31;4975192;28;20239;-85
2023/05/25 02:37:48;;;;;;;22.83;15.33;;;;;;;-141.97;100.00;47622.88;4974038;28;20176;-84
2023/05/25 02:40:13;;;;;;;20.87;14.57;;;;;;;-141.97;100.00;47632.47;4974878;28;20207;-85
2023/05/25 02:42:39;;;;;;;20.40;14.33;;;;;;;-141.97;100.00;47642.09;4974418;28;20167;-85
2023/05/25 02:45:09;;;;;;;22.30;14.17;;;;;;;-141.97;100.00;47684.38;4957951;28;20202;-85
2023/05/25 02:47:34;;;;;;;22.97;14.23;;;;;;;-141.97;100.00;47751.66;4975063;28;20164;-84
2023/05/25 02:50:00;;;;;;;21.70;14.20;;;;;;;-141.97;100.00;47505.63;4974639;28;20296;-86
2023/05/25 02:52:25;;;;;;;25.33;14.23;;;;;;;-141.97;100.00;47657.47;4974021;28;20544;-85
2023/05/25 02:54:51;;;;;;;22.50;14.17;;;;;;;-141.97;100.00;47795.88;4956902;28;20242;-85
2023/05/25 02:57:16;;;;;;;27.47;18.33;;;;;;;-141.97;100.00;47845.84;4974638;28;20202;-85
2023/05/25 02:59:42;;;;;;;40.30;24.23;;;;;;;-141.97;100.00;47759.34;4974944;28;20640;-85
2023/05/25 03:02:07;;;;;;;25.50;16.90;;;;;;;-141.97;100.00;47665.16;4956854;28;20164;-85
2023/05/25 03:04:36;;;;;;;23.27;14.97;;;;;;;-141.97;100.00;47463.34;4957329;28;20207;-87
2023/05/25 03:07:01;;;;;;;21.40;14.20;;;;;;;-141.97;100.00;47509.47;4975140;28;20160;-85
2023/05/25 03:09:27;;;;;;;21.67;14.73;;;;;;;-141.97;100.00;47497.94;4974469;28;20222;-85
2023/05/25 03:11:52;;;;;;;32.17;21.73;;;;;;;-141.97;100.00;47688.22;4978655;28;20152;-85
2023/05/25 03:14:17;;;;;;;36.87;24.67;;;;;;;-141.97;100.00;47705.53;4979046;28;20166;-85
2023/05/25 03:16:43;;;;;;;39.57;25.00;;;;;;;-141.97;100.00;47792.03;4961484;28;20641;-85
2023/05/25 03:19:09;;;;;;;22.63;15.47;;;;;;;-141.97;100.00;47815.09;4977703;28;20168;-86
2023/05/25 03:21:36;;;;;;;20.07;13.63;;;;;;;-141.97;100.00;47676.69;4990715;28;20564;-84
2023/05/25 03:24:01;;;;;;;23.87;13.90;;;;;;;-141.97;100.00;47542.16;4997743;28;20619;-85
2023/05/25 03:26:27;;;;;;;20.00;13.07;;;;;;;-141.97;100.00;47622.88;4998378;28;20246;-85
2023/05/25 03:28:53;;;;;;;20.00;13.00;;;;;;;-141.97;100.00;47676.69;4980507;28;20167;-85
2023/05/25 03:31:18;;;;;;;19.20;12.57;;;;;;;-141.97;100.00;47745.88;4998014;28;20246;-85
2023/05/25 03:33:44;;;;;;;19.20;12.53;;;;;;;-141.97;100.00;47828.53;4998326;28;20244;-85
2023/05/25 03:36:11;;;;;;;18.27;12.13;;;;;;;-141.97;100.00;47684.38;4997300;28;20167;-85
2023/05/25 03:38:37;;;;;;;17.93;11.90;;;;;;;-141.97;100.00;47680.53;4997558;28;20167;-86
2023/05/25 03:41:02;;;;;;;15.83;11.43;;;;;;;-141.97;100.00;47707.44;4979391;28;20596;-86
2023/05/25 03:43:27;;;;;;;20.13;11.77;;;;;;;-141.97;100.00;47718.97;4998154;28;20234;-84
2023/05/25 03:45:53;;;;;;;16.97;12.03;;;;;;;-141.97;100.00;47595.97;4997128;28;20292;-85
2023/05/25 03:48:18;;;;;;;18.03;12.23;;;;;;;-141.97;100.00;47628.63;4997057;28;20532;-87
2023/05/25 03:50:44;;;;;;;16.50;11.70;;;;;;;-141.97;100.00;47653.63;4997272;28;20160;-86
2023/05/25 03:53:10;;;;;;;21.73;12.87;;;;;;;-141.97;100.00;47607.50;4996028;28;20180;-86
2023/05/25 03:55:35;;;;;;;18.57;12.30;;;;;;;-141.97;100.00;47603.66;4997053;28;20529;-85
2023/05/25 03:58:00;;;;;;;23.33;12.33;;;;;;;-141.97;100.00;47801.63;4998454;28;20226;-86
2023/05/25 04:00:26;;;;;;;20.47;12.87;;;;;;;-141.97;100.00;47644.00;4997365;28;20321;-85
2023/05/25 04:02:52;;;;;;;20.93;13.50;;;;;;;-141.97;100.00;47695.91;4998500;28;20657;-86
2023/05/25 04:05:17;;;;;;;21.70;15.00;;;;;;;-141.97;100.00;47561.38;5000922;28;20175;-86
2023/05/25 04:07:43;;;;;;;23.03;15.00;;;;;;;-141.97;100.00;47784.34;4980123;28;20166;-86
2023/05/25 04:10:09;;;;;;;19.60;12.90;;;;;;;-141.97;100.00;47707.44;4996926;28;20163;-86
2023/05/25 04:12:35;;;;;;;20.97;11.80;;;;;;;-141.97;100.00;47519.06;4976779;28;20402;-85
2023/05/25 04:15:02;;;;;;;20.47;12.73;;;;;;;-141.97;100.00;47669.00;4977246;28;20156;-86
2023/05/25 04:17:28;;;;;;;17.03;12.20;;;;;;;-141.97;100.00;47709.38;4978038;28;20152;-86
2023/05/25 04:19:53;;;;;;;19.03;11.60;;;;;;;-141.97;100.00;47607.50;4985801;28;20164;-85
2023/05/25 04:22:19;;;;;;;18.47;11.43;;;;;;;-141.97;100.00;47617.09;4999132;28;20168;-86
2023/05/25 04:24:45;;;;;;;16.47;11.60;;;;;;;-141.97;100.00;47676.69;4986021;28;20241;-84
2023/05/25 04:27:10;;;;;;;19.03;12.10;;;;;;;-141.97;100.00;47599.81;4977355;28;20164;-86
2023/05/25 04:29:37;;;;;;;17.20;11.70;;;;;;;-141.97;100.00;47659.38;4977595;28;20477;-85
2023/05/25 04:32:02;;;;;;;15.53;11.87;;;;;;;-141.97;100.00;47680.53;4977537;28;20160;-86
2023/05/25 04:34:28;;;;;;;16.80;12.17;;;;;;;-141.97;100.00;47847.75;4977179;28;20176;-86
2023/05/25 04:36:55;;;;;;;17.80;12.37;;;;;;;-141.97;98.02;47622.88;4960220;28;20170;-87
2023/05/25 04:39:20;;;;;;;19.60;12.33;;;;;;;-141.97;96.68;47601.72;4977552;28;20168;-87
2023/05/25 04:41:47;;;;;;;19.80;12.03;;;;;;;-141.97;94.63;47805.47;4970260;28;20189;-86
2023/05/25 04:44:12;;;;;;;16.37;11.57;;;;;;;-141.97;92.39;47697.84;4971965;28;20215;-85
2023/05/25 04:46:41;;;;;;;16.67;11.97;;;;;;;-141.97;87.62;47626.72;4976993;28;20199;-86
2023/05/25 04:49:09;;;;;;;17.30;11.13;;;;;;;-141.97;83.24;47645.94;4977567;28;20215;-86
2023/05/25 04:51:35;;;;;;;14.70;10.97;;;;;;;-141.97;79.79;47549.84;4976947;28;20164;-86
2023/05/25 04:54:19;;;;;;;17.23;12.10;;;;;;;-141.97;80.03;47803.56;4976059;28;20192;-86
2023/05/25 04:56:45;;;;;;;16.23;10.70;;;;;;;-141.97;80.76;47615.19;4978153;28;20175;-86
2023/05/25 04:59:10;;;;;;;15.83;11.57;;;;;;;-141.97;80.75;47845.84;4975811;28;20164;-87
2023/05/25 05:01:43;;;;;;;16.73;10.87;;;;;;;-141.97;81.27;47555.59;4977290;28;20164;-86
2023/05/25 05:04:09;;;;;;;15.40;10.80;;;;;;;-141.97;81.21;47695.91;4977233;28;20247;-85
2023/05/25 05:06:35;;;;;;;15.07;10.80;;;;;;;-141.97;79.55;47690.16;4978033;28;20204;-86
2023/05/25 05:09:01;;;;;;;15.77;10.70;;;;;;;-141.97;77.90;47670.91;4992957;28;20172;-87
2023/05/25 05:11:27;;;;;;;17.90;10.87;;;;;;;-141.97;79.46;47649.78;4994120;28;20179;-86
2023/05/25 05:13:53;;;;;;;14.07;10.67;;;;;;;-141.97;79.49;47522.91;4990245;28;20184;-85
2023/05/25 05:16:19;;;;;;;17.70;10.97;;;;;;;-141.97;78.89;47657.47;4985492;28;20198;-87
2023/05/25 05:18:44;;;;;;;13.17;9.33;;;;;;;-141.97;76.82;47711.28;4983517;28;20564;-86
2023/05/25 05:21:10;;;;;;;12.73;9.40;;;;;;;-141.97;75.67;47642.09;4995352;28;20254;-87
2023/05/25 05:23:35;;;;;;;14.60;9.60;;;;;;;-141.97;75.88;47588.28;4993051;28;20191;-86
2023/05/25 05:26:03;;;;;;;14.63;9.37;;;;;;;-141.97;74.83;47569.06;4976077;28;20199;-86
2023/05/25 05:28:29;;;;;;;12.73;9.10;;;;;;;-141.97;75.46;47438.34;4958953;28;20303;-87
2023/05/25 05:30:55;;;;;;;13.20;9.40;;;;;;;-141.97;74.98;47776.63;4975953;28;20179;-86
2023/05/25 05:33:22;;;;;;;17.07;10.20;;;;;;;-141.97;74.14;47651.69;4975343;28;20168;-86
2023/05/25 05:35:48;;;;;;;15.13;9.80;;;;;;;-141.97;72.85;47667.06;4975518;28;20221;-86
2023/05/25 05:38:13;;;;;;;14.17;9.73;;;;;;;-141.97;71.70;47853.53;4975893;28;20160;-87
2023/05/25 05:40:38;;;;;;;14.90;10.20;;;;;;;-141.97;72.70;47476.78;4976571;28;20176;-87
2023/05/25 05:43:04;;;;;;;15.70;9.97;;;;;;;-141.97;71.99;47768.94;4958548;28;20606;-86
2023/05/25 05:45:29;;;;;;;13.50;9.70;;;;;;;-141.97;70.99;47521.00;4958119;28;20281;-86
2023/05/25 05:47:55;;;;;;;13.60;9.63;;;;;;;-141.97;69.48;47620.94;4975809;28;20183;-87
2023/05/25 05:50:20;;;;;;;15.70;9.97;;;;;;;-141.97;69.37;47642.09;4974914;28;20176;-86
2023/05/25 05:52:46;;;;;;;13.10;9.50;;;;;;;-141.97;67.65;47580.59;4975932;28;20285;-87
2023/05/25 05:55:12;;;;;;;12.73;9.47;;;;;;;-141.97;66.63;47553.69;4976260;28;20168;-86
2023/05/25 05:57:37;;;;;;;13.73;9.13;;;;;;;-141.97;66.23;47480.63;4975942;28;20167;-87
2023/05/25 06:00:05;;;;;;;11.87;8.23;;;;;;;-141.97;66.43;47626.72;4976014;28;20637;-87
2023/05/25 06:02:31;;;;;;;12.73;8.67;;;;;;;-141.97;65.26;47661.31;4973932;28;20187;-87
2023/05/25 06:04:56;;;;;;;10.60;8.67;;;;;;;-141.97;65.84;47638.25;4975434;28;20188;-87
2023/05/25 06:07:21;;;;;;;12.70;8.47;;;;;;;-141.97;65.35;47615.19;4981862;28;20266;-87
2023/05/25 06:09:47;;;;;;;12.33;8.73;;;;;;;-141.97;65.08;47615.19;4978485;28;20651;-86
2023/05/25 06:12:12;;;;;;;12.70;8.30;;;;;;;-141.97;65.27;47603.66;4980987;28;20263;-87
2023/05/25 06:14:37;;;;;;;15.60;8.27;;;;;;;-141.97;65.20;47726.66;4975487;28;20196;-87
2023/05/25 06:17:03;;;;;;;14.63;7.93;;;;;;;-141.97;64.49;47638.25;4977749;28;20271;-87
2023/05/25 06:19:28;;;;;;;13.70;8.67;;;;;;;-141.97;64.76;47561.38;4979569;28;20190;-87
2023/05/25 06:21:54;;;;;;;17.00;9.00;;;;;;;-141.97;63.80;47569.06;4994974;28;20513;-85
2023/05/25 06:24:19;;;;;;;13.40;8.67;;;;;;;-141.97;63.61;47592.13;4996618;28;20244;-85
2023/05/25 06:26:45;;;;;;;14.77;9.67;;;;;;;-141.97;62.28;47611.34;4965331;28;20616;-88
2023/05/25 06:29:10;;;;;;;14.53;11.13;;;;;;;-141.97;60.90;47624.78;4975913;28;20171;-87
2023/05/25 06:31:35;;;;;;;23.37;13.43;;;;;;;-141.97;60.41;47569.06;4975597;28;20191;-86
2023/05/25 06:34:01;;;;;;;19.73;11.60;;;;;;;-141.97;59.83;47818.94;4968836;28;20719;-85
2023/05/25 06:36:26;;;;;;;14.13;10.43;;;;;;;-141.97;60.75;47772.78;4975955;28;20632;-85
2023/05/25 06:38:51;;;;;;;14.93;10.07;;;;;;;-141.97;60.42;47595.97;4957203;28;20195;-87
2023/05/25 06:41:18;;;;;;;14.57;10.57;;;;;;;-141.97;60.00;47624.78;4974966;28;20263;-87
2023/05/25 06:43:44;;;;;;;13.37;9.27;;;;;;;-141.97;58.34;47763.19;4976433;28;20259;-87
2023/05/25 06:46:10;;;;;;;15.60;9.00;;;;;;;-141.97;59.27;47753.56;4959053;28;20291;-88
2023/05/25 06:48:36;;;;;;;13.87;8.70;;;;;;;-141.97;60.30;47517.16;4978297;28;20169;-87
2023/05/25 06:51:02;;;;;;;14.70;8.80;;;;;;;-141.97;59.45;47472.94;4978035;28;20176;-86
2023/05/25 06:53:28;;;;;;;15.20;8.30;;;;;;;-141.97;59.42;47632.47;4973429;28;20175;-86
2023/05/25 06:55:53;;;;;;;12.20;8.47;;;;;;;-141.97;59.42;47724.75;4969646;28;20258;-87
2023/05/25 06:58:18;;;;;;;10.50;8.33;;;;;;;-141.97;58.96;47453.72;4972872;28;20182;-87
2023/05/25 07:00:44;;;;;;;10.50;8.23;;;;;;;-141.97;57.63;47499.84;4976404;28;20180;-86
2023/05/25 07:03:09;;;;;;;9.70;7.40;;;;;;;-141.97;57.28;47649.78;4978532;28;20695;-86
2023/05/25 07:05:35;;;;;;;11.03;8.33;;;;;;;-141.97;56.97;47524.84;4978172;28;20212;-87
2023/05/25 07:08:00;;;;;;;10.17;7.67;;;;;;;-141.97;55.12;47547.91;4990252;28;20261;-87
2023/05/25 07:10:25;;;;;;;11.23;7.60;;;;;;;-141.97;56.11;47634.41;4997882;28;20168;-88
2023/05/25 07:12:51;;;;;;;9.33;7.93;;;;;;;-141.97;55.12;47694.00;4979622;28;20550;-86
2023/05/25 07:15:16;;;;;;;11.23;8.13;;;;;;;-141.97;54.59;47734.34;4976635;28;20172;-87
2023/05/25 07:17:42;;;;;;;10.03;7.20;;;;;;;-141.97;53.41;47749.72;4977040;28;20172;-86
2023/05/25 07:20:09;;;;;;;9.23;7.23;;;;;;;-141.97;53.47;47644.00;4958549;28;20180;-87
2023/05/25 07:22:35;;;;;;;8.93;6.97;;;;;;;-141.97;53.01;47405.69;4967972;28;20171;-87
2023/05/25 07:25:01;;;;;;;10.53;7.43;;;;;;;-141.97;52.08;47451.81;4959185;28;20192;-88
2023/05/25 07:27:26;;;;;;;10.70;7.30;;;;;;;-141.97;52.49;47638.25;4977423;28;20172;-87
2023/05/25 07:29:52;;;;;;;12.97;7.93;;;;;;;-141.97;51.61;47472.94;4959826;28;20725;-87
2023/05/25 07:32:17;;;;;;;11.40;7.80;;;;;;;-141.97;51.21;47620.94;4977282;28;20259;-87
2023/05/25 07:34:42;;;;;;;8.77;7.40;;;;;;;-141.97;50.90;47653.63;4976616;28;20199;-87
2023/05/25 07:37:08;;;;;;;9.00;7.50;;;;;;;-141.97;51.90;47532.53;4977695;28;20611;-87
2023/05/25 07:39:33;;;;;;;8.60;7.57;;;;;;;-141.97;50.79;47584.44;4960680;28;20644;-88
2023/05/25 07:42:00;;;;;;;13.73;7.97;;;;;;;-141.97;51.05;47513.31;4943635;29;20282;-86
2023/05/25 07:44:26;;;;;;;11.67;7.90;;;;;;;-141.97;50.21;47547.91;4954512;29;20235;-87
2023/05/25 07:46:51;;;;;;;67.97;41.13;;;;;;;-141.97;51.22;47432.59;4954959;28;20295;-85
2023/05/25 07:49:17;;;;;;;9.23;8.00;;;;;;;-141.97;50.95;47451.81;4954955;29;20215;-85
2023/05/25 07:51:43;;;;;;;11.17;8.40;;;;;;;-141.97;52.14;47534.44;4955196;29;20184;-84
2023/05/25 07:54:09;;;;;;;12.30;7.90;;;;;;;-141.97;52.09;47538.28;4954271;29;20224;-86
2023/05/25 07:56:35;;;;;;;10.73;8.23;;;;;;;-141.97;51.51;47570.97;4954765;28;20169;-85
2023/05/25 07:59:00;;;;;;;10.67;8.17;;;;;;;-141.97;52.25;47576.75;4961983;29;20332;-86
2023/05/25 08:01:26;;;;;;;11.43;8.30;;;;;;;-141.97;52.85;47484.47;4967874;28;20689;-86
2023/05/25 08:03:51;;;;;;;12.13;9.03;;;;;;;-141.97;52.78;47442.19;4978177;28;20172;-85
2023/05/25 08:06:17;;;;;;;11.87;8.00;;;;;;;-141.97;53.15;47782.41;4978196;28;20202;-84
2023/05/25 08:08:43;;;;;;;11.67;9.03;;;;;;;-141.97;53.06;47586.34;4996354;28;20493;-85
2023/05/25 08:11:10;;;;;;;11.60;8.53;;;;;;;-141.97;52.95;47588.28;4979340;28;20577;-84
2023/05/25 08:13:36;;;;;;;11.53;9.10;;;;;;;-141.97;52.22;47342.25;4978072;28;20663;-86
2023/05/25 08:16:01;;;;;;;11.07;8.00;;;;;;;-141.97;51.63;47661.31;4977437;28;20172;-86
2023/05/25 08:18:26;;;;;;;9.60;8.20;;;;;;;-141.97;52.75;47465.25;4978165;28;20259;-88
2023/05/25 08:20:52;;;;;;;12.00;8.77;;;;;;;-141.97;52.90;47569.06;4977748;28;20192;-87
2023/05/25 08:23:17;;;;;;;11.57;8.40;;;;;;;-141.97;51.62;47557.53;4977168;28;20179;-86
2023/05/25 08:25:43;;;;;;;14.63;8.13;;;;;;;-141.97;51.24;47761.25;4995966;28;20212;-86
2023/05/25 08:28:08;;;;;;;13.10;8.27;;;;;;;-141.97;51.10;47565.22;4995545;28;20200;-87
2023/05/25 08:30:34;;;;;;;12.27;8.57;;;;;;;-141.97;51.60;47522.91;4977692;28;20218;-88
2023/05/25 08:32:59;;;;;;;17.93;11.10;;;;;;;-141.97;51.91;47572.91;4957750;28;20270;-87
2023/05/25 08:35:24;;;;;;;15.47;9.73;;;;;;;-141.97;51.07;47478.72;4959645;28;20167;-87
2023/05/25 08:37:50;;;;;;;12.80;9.23;;;;;;;-141.97;50.26;47480.63;4977078;28;20171;-88
2023/05/25 08:40:21;;;;;;;10.98;8.63;;;;;;;-141.97;48.91;47413.38;4976910;28;20173;-87
2023/05/25 08:42:46;;;;;;;13.60;8.88;;;;;;;-141.97;49.12;47426.81;4976480;28;20170;-86
2023/05/25 08:45:12;;;;;;;13.88;8.55;;;;;;;-141.97;47.92;47659.38;4976531;28;20202;-86
2023/05/25 08:47:42;;;;;;;9.57;7.80;;;;;;;-141.97;47.57;47380.69;4959321;28;20555;-87
2023/05/25 08:50:09;;;;;;;11.18;8.30;;;;;;;-141.97;49.27;47411.44;4976316;28;20584;-87
2023/05/25 08:52:36;;;;;;;8.90;7.50;;;;;;;-141.97;49.68;47557.53;4976062;28;20156;-88
2023/05/25 08:55:08;;;;;;;11.20;7.83;;;;;;;-141.97;47.26;47496.00;4966133;28;20238;-87
2023/05/25 08:57:44;;;;;;;8.23;6.95;;;;;;;-141.97;46.08;47522.91;4976453;28;20201;-86
2023/05/25 09:00:14;;;;;;;8.90;7.07;;;;;;;-141.97;45.35;47690.16;4958669;28;20282;-87
2023/05/25 09:02:45;;;;;;;11.43;7.32;;;;;;;-141.97;44.65;47476.78;4975628;28;20184;-87
2023/05/25 09:05:12;;;;;;;8.10;6.72;;;;;;;-141.97;43.09;47526.75;4976960;28;20188;-87
2023/05/25 09:07:37;;;;;;;9.30;6.10;;;;;;;-141.97;42.00;47428.75;4985081;28;20259;-88
2023/05/25 09:10:03;;;;;;;6.82;5.95;;;;;;;-141.97;41.28;47421.06;4978005;28;20208;-86
2023/05/25 09:12:30;;;;;;;6.97;6.10;;;;;;;-141.97;40.68;47469.09;4994957;28;20647;-88
2023/05/25 09:14:57;;;;;;;10.68;7.10;;;;;;;-141.97;42.18;47421.06;4976550;28;20173;-87
2023/05/25 09:17:22;;;;;;;9.43;7.40;;;;;;;-141.97;41.93;47459.50;4958771;28;20333;-86
2023/05/25 09:19:48;;;;;;;11.75;6.78;;;;;;;-141.97;41.44;47636.31;4976762;28;20207;-86
2023/05/25 09:22:14;;;;;;;10.90;6.93;;;;;;;-141.97;40.74;47336.50;4976196;28;20167;-86
2023/05/25 09:24:40;;;;;;;8.23;6.35;;;;;;;-141.97;40.89;47315.34;4975738;28;20249;-88
2023/05/25 09:27:09;;;;;;;7.68;6.35;;;;;;;-141.97;39.91;47373.00;4976351;28;20171;-88
2023/05/25 09:29:35;;;;;;;8.15;6.53;;;;;;;-141.97;40.26;47686.31;4959019;28;20607;-89
2023/05/25 09:32:04;;;;;;;7.95;6.63;;;;;;;-141.97;39.81;47446.03;4975080;28;20193;-88
2023/05/25 09:34:33;;;;;;;11.85;6.57;;;;;;;-141.97;40.40;47417.22;4957426;28;20187;-87
2023/05/25 09:37:02;;;;;;;10.40;5.90;;;;;;;-141.97;39.37;47299.97;4976797;28;20152;-88
2023/05/25 09:39:29;;;;;;;8.27;6.22;;;;;;;-141.97;39.49;47647.84;4976343;28;20254;-88
2023/05/25 09:41:55;;;;;;;7.60;6.03;;;;;;;-141.97;40.20;47421.06;4976728;28;20671;-88
2023/05/25 09:44:20;;;;;;;6.80;5.88;;;;;;;-141.97;39.68;47676.69;4975703;28;20725;-90
2023/05/25 09:46:46;;;;;;;6.82;6.10;;;;;;;-141.97;38.85;47647.84;4977955;28;20197;-89
2023/05/25 09:49:11;;;;;;;8.00;5.53;;;;;;;-141.97;38.85;47692.06;4960403;28;20179;-88
2023/05/25 09:51:37;;;;;;;9.27;6.18;;;;;;;-141.97;38.77;47697.84;4977986;28;20714;-88
2023/05/25 09:54:04;;;;;;;6.85;5.47;;;;;;;-141.97;37.97;47232.72;4961545;28;20203;-88
2023/05/25 09:56:35;;;;;;;7.57;5.90;;;;;;;-141.97;38.10;47667.06;4975509;28;20617;-88
2023/05/25 09:59:01;;;;;;;10.43;5.60;;;;;;;-141.97;37.92;47580.59;4958296;28;20314;-87
2023/05/25 10:01:27;;;;;;;6.95;5.50;;;;;;;-141.97;38.11;47638.25;4957990;28;20641;-88
2023/05/25 10:03:55;;;;;;;8.52;5.40;;;;;;;-141.97;37.86;47396.06;4974469;28;20175;-86
2023/05/25 10:06:22;;;;;;;8.90;5.63;;;;;;;-141.97;38.72;47601.72;4960372;28;20287;-88
2023/05/25 10:08:48;;;;;;;7.97;5.50;;;;;;;-141.97;39.10;47611.34;4957614;28;20271;-88
2023/05/25 10:11:14;;;;;;;9.63;5.50;;;;;;;-141.97;37.92;47738.19;4955684;28;20192;-87
2023/05/25 10:13:43;;;;;;;7.72;5.55;;;;;;;-141.97;37.16;47403.75;4944814;28;20356;-87
2023/05/25 10:16:16;;;;;;;6.97;5.10;;;;;;;-141.97;36.60;47369.16;4955744;28;20274;-87
2023/05/25 10:19:17;;;;;;;7.65;6.28;;;;;;;-141.97;37.97;47467.19;4955813;28;20211;-87
2023/05/25 10:21:46;;;;;;;9.18;6.13;;;;;;;-141.97;37.53;47434.50;4953454;28;20239;-87
2023/05/25 10:24:30;;;;;;;9.02;6.10;;;;;;;-141.97;38.12;47411.44;4951425;28;20183;-85
2023/05/25 10:27:00;;;;;;;9.10;6.20;;;;;;;-141.97;37.83;47386.47;4974854;28;20205;-85
2023/05/25 10:29:27;;;;;;;7.65;6.10;;;;;;;-141.97;37.80;47484.47;4963749;29;20229;-87
2023/05/25 10:31:53;;;;;;;8.63;6.53;;;;;;;-141.97;37.58;47732.44;4954568;29;20641;-86
2023/05/25 10:34:20;;;;;;;10.65;6.35;;;;;;;-141.97;37.56;47449.88;4955223;28;20263;-87
2023/05/25 10:36:47;;;;;;;8.25;5.80;;;;;;;-141.97;37.32;47572.91;4955741;28;20171;-86
2023/05/25 10:39:13;;;;;;;6.88;5.40;;;;;;;-141.97;37.89;47484.47;4954309;29;20633;-86
2023/05/25 10:41:40;;;;;;;7.60;5.72;;;;;;;-141.97;38.06;47505.63;4963229;28;20179;-87
2023/05/25 10:44:08;;;;;;;8.32;5.70;;;;;;;-141.97;38.35;47501.78;4976288;28;20218;-85
2023/05/25 10:46:41;;;;;;;10.60;6.25;;;;;;;-141.97;39.68;47461.41;4995803;28;20199;-88
2023/05/25 10:49:09;;;;;;;8.73;6.82;;;;;;;-141.97;39.95;47392.22;4951409;28;20612;-83
2023/05/25 10:51:39;;;;;;;10.15;6.15;;;;;;;-141.97;38.72;47472.94;4974814;28;20162;-85
2023/05/25 10:54:04;;;;;;;10.27;5.88;;;;;;;-141.97;40.52;47382.63;4974210;28;20650;-85
2023/05/25 10:56:30;;;;;;;9.02;5.90;;;;;;;-141.97;41.40;47396.06;4974665;28;20211;-87
2023/05/25 10:58:55;;;;;;;13.70;7.15;;;;;;;-141.97;42.32;47326.88;4974015;28;20259;-86
2023/05/25 11:01:21;;;;;;;15.00;7.60;;;;;;;-141.97;43.50;47559.44;4974031;28;20171;-86